CFG23B EDDB-GCRR
Flight info
| Callsign | CFG23B |
|---|---|
| Flight time | 4h 34m |
| Altitude | 38000 |
| Route | KISUC1Q KISUC Z20 MAG Z92 ABGUS DCT WRB DCT LENDO DCT RASCA DCT FAMEN DCT AHVEC DCT RESMI DCT DEKOD DCT DISAK DCT ARKIP DCT ARNAV DCT LMG DCT UVELI DCT OSMOB DCT VAVIX DCT BTZ DCT URUNA DCT SSN DCT VRA DCT NEA L14 ADINO DCT ELVAR DCT TAKAV DCT VEDOD UN857 TERTO |
| Aircraft | A339/H-SADE1E2E3GHIJ3J5M1P2RWXY/LB2D1 |
Departure
| Time | 2026-05-06 07:00 |
|---|---|
| Airport | Berlin Brandenburg Airport (EDDB) |
Arrival
| Time | 2026-05-06 11:35 |
|---|---|
| Airport | César Manrique-Lanzarote Airport (GCRR) |
| Time | Latitude | Longitude | Altitude | Speed | Heading |
|---|---|---|---|---|---|
| 2026-05-06 06:36 | 52.36520 | 13.50023 | 153 ft | 0 kts | 249° |
| 2026-05-06 06:50 | 52.36527 | 13.50052 | 152 ft | 4 kts | 249° |
| 2026-05-06 06:50 | 52.36537 | 13.50093 | 151 ft | 4 kts | 249° |
| 2026-05-06 06:51 | 52.36545 | 13.50126 | 151 ft | 4 kts | 236° |
| 2026-05-06 06:51 | 52.36563 | 13.50154 | 152 ft | 4 kts | 195° |
| 2026-05-06 06:51 | 52.36586 | 13.50153 | 152 ft | 4 kts | 159° |
| 2026-05-06 06:51 | 52.36610 | 13.50138 | 152 ft | 2 kts | 159° |
| 2026-05-06 06:52 | 52.36611 | 13.50138 | 152 ft | 0 kts | 159° |
| 2026-05-06 06:54 | 52.36508 | 13.50205 | 152 ft | 27 kts | 157° |
| 2026-05-06 06:54 | 52.36337 | 13.50315 | 152 ft | 26 kts | 159° |
| 2026-05-06 06:55 | 52.36125 | 13.50448 | 152 ft | 37 kts | 159° |
| 2026-05-06 06:55 | 52.35897 | 13.50592 | 152 ft | 33 kts | 158° |
| 2026-05-06 06:55 | 52.35766 | 13.50617 | 150 ft | 9 kts | 208° |
| 2026-05-06 06:55 | 52.35733 | 13.50540 | 150 ft | 13 kts | 252° |
| 2026-05-06 06:56 | 52.35692 | 13.50284 | 151 ft | 27 kts | 250° |
| 2026-05-06 06:56 | 52.35625 | 13.50002 | 151 ft | 28 kts | 249° |
| 2026-05-06 06:56 | 52.35546 | 13.49672 | 151 ft | 34 kts | 248° |
| 2026-05-06 06:56 | 52.35454 | 13.49275 | 151 ft | 40 kts | 250° |
| 2026-05-06 06:57 | 52.35349 | 13.48824 | 151 ft | 44 kts | 248° |
| 2026-05-06 06:57 | 52.35242 | 13.48385 | 152 ft | 39 kts | 248° |
| 2026-05-06 06:57 | 52.35149 | 13.47989 | 152 ft | 35 kts | 249° |
| 2026-05-06 06:57 | 52.35064 | 13.47637 | 153 ft | 31 kts | 249° |
| 2026-05-06 06:58 | 52.34989 | 13.47321 | 153 ft | 28 kts | 248° |
| 2026-05-06 06:58 | 52.34921 | 13.47040 | 154 ft | 25 kts | 249° |
| 2026-05-06 06:58 | 52.34862 | 13.46790 | 154 ft | 22 kts | 246° |
| 2026-05-06 06:58 | 52.34762 | 13.46668 | 154 ft | 17 kts | 197° |
| 2026-05-06 06:59 | 52.34672 | 13.46663 | 158 ft | 10 kts | 163° |
| 2026-05-06 06:59 | 52.34618 | 13.46731 | 160 ft | 10 kts | 127° |
| 2026-05-06 06:59 | 52.34581 | 13.46878 | 162 ft | 18 kts | 106° |
| 2026-05-06 06:59 | 52.34608 | 13.47112 | 161 ft | 26 kts | 70° |
| 2026-05-06 07:00 | 52.34742 | 13.47681 | 161 ft | 87 kts | 68° |
| 2026-05-06 07:00 | 52.35042 | 13.48934 | 163 ft | 149 kts | 69° |
| 2026-05-06 07:00 | 52.35449 | 13.50714 | 608 ft | 170 kts | 68° |
| 2026-05-06 07:00 | 52.35681 | 13.52560 | 1679 ft | 169 kts | 92° |
| 2026-05-06 07:01 | 52.35210 | 13.54416 | 2325 ft | 191 kts | 124° |
| 2026-05-06 07:01 | 52.34052 | 13.55724 | 2714 ft | 221 kts | 162° |
| 2026-05-06 07:01 | 52.32459 | 13.55630 | 3002 ft | 253 kts | 199° |
| 2026-05-06 07:01 | 52.30966 | 13.53943 | 3654 ft | 264 kts | 222° |
| 2026-05-06 07:02 | 52.29642 | 13.51920 | 4719 ft | 259 kts | 219° |
| 2026-05-06 07:02 | 52.28163 | 13.50193 | 5519 ft | 264 kts | 213° |
| 2026-05-06 07:02 | 52.26781 | 13.48228 | 6306 ft | 266 kts | 237° |
| 2026-05-06 07:02 | 52.26244 | 13.45388 | 7124 ft | 268 kts | 266° |
| 2026-05-06 07:03 | 52.26309 | 13.42304 | 7791 ft | 275 kts | 272° |
| 2026-05-06 07:03 | 52.26345 | 13.39177 | 8588 ft | 277 kts | 266° |
| 2026-05-06 07:03 | 52.26244 | 13.36016 | 9349 ft | 281 kts | 266° |
| 2026-05-06 07:03 | 52.26257 | 13.32804 | 10081 ft | 285 kts | 271° |
| 2026-05-06 07:04 | 52.26350 | 13.29554 | 10715 ft | 292 kts | 270° |
| 2026-05-06 07:04 | 52.26324 | 13.26138 | 11015 ft | 311 kts | 266° |
| 2026-05-06 07:04 | 52.26138 | 13.22509 | 11239 ft | 331 kts | 257° |
| 2026-05-06 07:04 | 52.25193 | 13.19037 | 11734 ft | 338 kts | 236° |
| 2026-05-06 07:05 | 52.23870 | 13.15895 | 12671 ft | 336 kts | 237° |
| 2026-05-06 07:05 | 52.22698 | 13.12575 | 13464 ft | 339 kts | 242° |
| 2026-05-06 07:05 | 52.21566 | 13.09185 | 14162 ft | 342 kts | 239° |
| 2026-05-06 07:05 | 52.20276 | 13.05907 | 14836 ft | 345 kts | 236° |
| 2026-05-06 07:06 | 52.18953 | 13.02632 | 15503 ft | 348 kts | 238° |
| 2026-05-06 07:06 | 52.17749 | 12.99249 | 16148 ft | 352 kts | 240° |
| 2026-05-06 07:06 | 52.16568 | 12.95738 | 16795 ft | 355 kts | 244° |
| 2026-05-06 07:06 | 52.15868 | 12.91866 | 17439 ft | 359 kts | 258° |
| 2026-05-06 07:07 | 52.15382 | 12.87843 | 18032 ft | 364 kts | 256° |
| 2026-05-06 07:07 | 52.14748 | 12.83832 | 18627 ft | 367 kts | 253° |
| 2026-05-06 07:07 | 52.14107 | 12.79789 | 19234 ft | 371 kts | 256° |
| 2026-05-06 07:07 | 52.13586 | 12.75647 | 19864 ft | 376 kts | 258° |
| 2026-05-06 07:08 | 52.13045 | 12.71459 | 20485 ft | 380 kts | 256° |
| 2026-05-06 07:08 | 52.12393 | 12.67272 | 21128 ft | 384 kts | 255° |
| 2026-05-06 07:08 | 52.11750 | 12.63030 | 21733 ft | 388 kts | 257° |
| 2026-05-06 07:08 | 52.11180 | 12.58717 | 22335 ft | 392 kts | 257° |
| 2026-05-06 07:09 | 52.10579 | 12.54354 | 22960 ft | 397 kts | 256° |
| 2026-05-06 07:09 | 52.09904 | 12.49974 | 23571 ft | 402 kts | 256° |
| 2026-05-06 07:09 | 52.09245 | 12.45535 | 24097 ft | 406 kts | 257° |
| 2026-05-06 07:09 | 52.08632 | 12.41035 | 24630 ft | 409 kts | 257° |
| 2026-05-06 07:10 | 52.07984 | 12.36508 | 25131 ft | 413 kts | 256° |
| 2026-05-06 07:10 | 52.07289 | 12.31967 | 25634 ft | 416 kts | 256° |
| 2026-05-06 07:10 | 52.06611 | 12.27362 | 26130 ft | 421 kts | 257° |
| 2026-05-06 07:10 | 52.05957 | 12.22703 | 26577 ft | 426 kts | 257° |
| 2026-05-06 07:11 | 52.05265 | 12.17996 | 27037 ft | 430 kts | 256° |
| 2026-05-06 07:11 | 52.04539 | 12.13256 | 27487 ft | 435 kts | 256° |
| 2026-05-06 07:11 | 52.03831 | 12.08452 | 27904 ft | 440 kts | 257° |
| 2026-05-06 07:11 | 52.03134 | 12.03597 | 28341 ft | 444 kts | 257° |
| 2026-05-06 07:12 | 52.02397 | 11.98693 | 28748 ft | 449 kts | 256° |
| 2026-05-06 07:12 | 52.01638 | 11.93750 | 29174 ft | 454 kts | 256° |
| 2026-05-06 07:12 | 52.00899 | 11.88748 | 29646 ft | 458 kts | 257° |
| 2026-05-06 07:12 | 52.00155 | 11.83694 | 30115 ft | 461 kts | 256° |
| 2026-05-06 07:13 | 51.99360 | 11.78634 | 30608 ft | 463 kts | 253° |
| 2026-05-06 07:13 | 51.98449 | 11.73619 | 31069 ft | 465 kts | 253° |
| 2026-05-06 07:13 | 51.97629 | 11.68540 | 31572 ft | 466 kts | 255° |
| 2026-05-06 07:13 | 51.96834 | 11.63447 | 32014 ft | 467 kts | 253° |
| 2026-05-06 07:14 | 51.95952 | 11.58464 | 32521 ft | 466 kts | 251° |
| 2026-05-06 07:14 | 51.95015 | 11.53368 | 33178 ft | 462 kts | 252° |
| 2026-05-06 07:14 | 51.94193 | 11.48423 | 33852 ft | 459 kts | 253° |
| 2026-05-06 07:14 | 51.93387 | 11.43445 | 34370 ft | 456 kts | 252° |
| 2026-05-06 07:15 | 51.92510 | 11.38518 | 34802 ft | 454 kts | 251° |
| 2026-05-06 07:15 | 51.91616 | 11.33625 | 35227 ft | 454 kts | 252° |
| 2026-05-06 07:15 | 51.90784 | 11.28693 | 35671 ft | 453 kts | 253° |
| 2026-05-06 07:15 | 51.89965 | 11.23775 | 36124 ft | 452 kts | 252° |
| 2026-05-06 07:16 | 51.89088 | 11.18901 | 36586 ft | 450 kts | 251° |
| 2026-05-06 07:16 | 51.88206 | 11.14044 | 37007 ft | 450 kts | 252° |
| 2026-05-06 07:16 | 51.87378 | 11.09174 | 37398 ft | 449 kts | 253° |
| 2026-05-06 07:16 | 51.86552 | 11.04314 | 37784 ft | 448 kts | 252° |
| 2026-05-06 07:17 | 51.85666 | 10.99438 | 37775 ft | 456 kts | 251° |
| 2026-05-06 07:17 | 51.83920 | 10.89611 | 37773 ft | 452 kts | 252° |
| 2026-05-06 07:18 | 51.82479 | 10.81480 | 37776 ft | 452 kts | 251° |
| 2026-05-06 07:18 | 51.80713 | 10.71715 | 37777 ft | 453 kts | 252° |
| 2026-05-06 07:19 | 51.78966 | 10.61950 | 37778 ft | 452 kts | 251° |
| 2026-05-06 07:19 | 51.77191 | 10.52190 | 37763 ft | 454 kts | 252° |
| 2026-05-06 07:20 | 51.75416 | 10.42428 | 37769 ft | 453 kts | 251° |
| 2026-05-06 07:20 | 51.73633 | 10.32679 | 37767 ft | 453 kts | 252° |
| 2026-05-06 07:21 | 51.71834 | 10.22934 | 37765 ft | 453 kts | 251° |
| 2026-05-06 07:21 | 51.70040 | 10.13191 | 37767 ft | 454 kts | 252° |
| 2026-05-06 07:22 | 51.68219 | 10.03460 | 37766 ft | 453 kts | 251° |
| 2026-05-06 07:22 | 51.66415 | 9.93741 | 37757 ft | 453 kts | 251° |
| 2026-05-06 07:23 | 51.64588 | 9.84101 | 37749 ft | 453 kts | 251° |
| 2026-05-06 07:23 | 51.62772 | 9.74399 | 37754 ft | 453 kts | 251° |
| 2026-05-06 07:24 | 51.60918 | 9.64719 | 37758 ft | 453 kts | 251° |
| 2026-05-06 07:24 | 51.59083 | 9.55033 | 37742 ft | 453 kts | 251° |
| 2026-05-06 07:25 | 51.57212 | 9.45345 | 37736 ft | 454 kts | 251° |
| 2026-05-06 07:25 | 51.55352 | 9.35639 | 37739 ft | 454 kts | 251° |
| 2026-05-06 07:26 | 51.53468 | 9.25963 | 37742 ft | 454 kts | 251° |
| 2026-05-06 07:26 | 51.51586 | 9.16279 | 37754 ft | 454 kts | 251° |
| 2026-05-06 07:27 | 51.49368 | 9.06826 | 37756 ft | 453 kts | 243° |
| 2026-05-06 07:27 | 51.46598 | 8.97731 | 37753 ft | 454 kts | 244° |
| 2026-05-06 07:28 | 51.43970 | 8.88536 | 37752 ft | 453 kts | 242° |
| 2026-05-06 07:28 | 51.39895 | 8.74856 | 37761 ft | 454 kts | 244° |
| 2026-05-06 07:29 | 51.37137 | 8.65766 | 37761 ft | 454 kts | 242° |
| 2026-05-06 07:29 | 51.34447 | 8.56623 | 37765 ft | 455 kts | 243° |
| 2026-05-06 07:30 | 51.31676 | 8.47540 | 37765 ft | 455 kts | 242° |
| 2026-05-06 07:30 | 51.28963 | 8.38405 | 37772 ft | 455 kts | 243° |
| 2026-05-06 07:31 | 51.26173 | 8.29317 | 37772 ft | 456 kts | 242° |
| 2026-05-06 07:31 | 51.23437 | 8.20187 | 37769 ft | 456 kts | 243° |
| 2026-05-06 07:32 | 51.20635 | 8.11116 | 37772 ft | 456 kts | 242° |
| 2026-05-06 07:32 | 51.17900 | 8.02063 | 37767 ft | 456 kts | 243° |
| 2026-05-06 07:33 | 51.15081 | 7.93000 | 37777 ft | 457 kts | 242° |
| 2026-05-06 07:33 | 51.12306 | 7.83890 | 37771 ft | 457 kts | 242° |
| 2026-05-06 07:34 | 51.09472 | 7.74840 | 37772 ft | 457 kts | 242° |
| 2026-05-06 07:34 | 51.06822 | 7.66209 | 37775 ft | 457 kts | 242° |
| 2026-05-06 07:35 | 51.03974 | 7.57164 | 37778 ft | 457 kts | 242° |
| 2026-05-06 07:35 | 51.01171 | 7.48120 | 37780 ft | 456 kts | 242° |
| 2026-05-06 07:36 | 50.98316 | 7.39108 | 37775 ft | 457 kts | 242° |
| 2026-05-06 07:36 | 50.95494 | 7.30086 | 37783 ft | 457 kts | 242° |
| 2026-05-06 07:37 | 50.92632 | 7.21095 | 37779 ft | 457 kts | 242° |
| 2026-05-06 07:37 | 50.89789 | 7.12098 | 37784 ft | 456 kts | 242° |
| 2026-05-06 07:38 | 50.86919 | 7.03120 | 37784 ft | 457 kts | 242° |
| 2026-05-06 07:38 | 50.84056 | 6.94156 | 37774 ft | 457 kts | 241° |
| 2026-05-06 07:39 | 50.81179 | 6.85190 | 37780 ft | 457 kts | 242° |
| 2026-05-06 07:39 | 50.78313 | 6.76311 | 37780 ft | 457 kts | 241° |
| 2026-05-06 07:40 | 50.75429 | 6.67361 | 37784 ft | 457 kts | 242° |
| 2026-05-06 07:40 | 50.72522 | 6.58440 | 37782 ft | 457 kts | 241° |
| 2026-05-06 07:41 | 50.69632 | 6.49518 | 37784 ft | 457 kts | 242° |
| 2026-05-06 07:41 | 50.66707 | 6.40619 | 37785 ft | 457 kts | 241° |
| 2026-05-06 07:42 | 50.63798 | 6.31699 | 37784 ft | 457 kts | 241° |
| 2026-05-06 07:42 | 50.60851 | 6.22825 | 37789 ft | 458 kts | 241° |
| 2026-05-06 07:43 | 50.57869 | 6.13951 | 37794 ft | 459 kts | 241° |
| 2026-05-06 07:43 | 50.54887 | 6.05064 | 37800 ft | 459 kts | 240° |
| 2026-05-06 07:44 | 50.51887 | 5.96190 | 37810 ft | 460 kts | 241° |
| 2026-05-06 07:44 | 50.48885 | 5.87310 | 37808 ft | 460 kts | 240° |
| 2026-05-06 07:45 | 50.45875 | 5.78456 | 37813 ft | 459 kts | 241° |
| 2026-05-06 07:45 | 50.42858 | 5.69613 | 37820 ft | 460 kts | 240° |
| 2026-05-06 07:46 | 50.39840 | 5.60780 | 37815 ft | 459 kts | 240° |
| 2026-05-06 07:46 | 50.36810 | 5.51978 | 37817 ft | 459 kts | 240° |
| 2026-05-06 07:47 | 50.33803 | 5.43221 | 37816 ft | 460 kts | 240° |
| 2026-05-06 07:47 | 50.30727 | 5.34361 | 37813 ft | 461 kts | 240° |
| 2026-05-06 07:48 | 50.27703 | 5.25604 | 37814 ft | 461 kts | 240° |
| 2026-05-06 07:48 | 50.24627 | 5.16810 | 37820 ft | 462 kts | 240° |
| 2026-05-06 07:49 | 50.21555 | 5.07981 | 37819 ft | 462 kts | 240° |
| 2026-05-06 07:49 | 50.18465 | 4.99196 | 37824 ft | 462 kts | 240° |
| 2026-05-06 07:50 | 50.15376 | 4.90397 | 37825 ft | 462 kts | 239° |
| 2026-05-06 07:50 | 50.11506 | 4.82470 | 37808 ft | 462 kts | 227° |
| 2026-05-06 07:51 | 50.07391 | 4.74813 | 37818 ft | 461 kts | 230° |
| 2026-05-06 07:51 | 50.03263 | 4.67268 | 37815 ft | 460 kts | 227° |
| 2026-05-06 07:52 | 49.99145 | 4.59660 | 37827 ft | 460 kts | 230° |
| 2026-05-06 07:52 | 49.94813 | 4.52361 | 37827 ft | 460 kts | 224° |
| 2026-05-06 07:53 | 49.90442 | 4.45084 | 37830 ft | 461 kts | 227° |
| 2026-05-06 07:53 | 49.85992 | 4.37936 | 37834 ft | 460 kts | 224° |
| 2026-05-06 07:54 | 49.81593 | 4.30722 | 37836 ft | 460 kts | 227° |
| 2026-05-06 07:54 | 49.77152 | 4.23598 | 37841 ft | 460 kts | 224° |
| 2026-05-06 07:55 | 49.72746 | 4.16432 | 37846 ft | 460 kts | 226° |
| 2026-05-06 07:55 | 49.68300 | 4.09327 | 37849 ft | 460 kts | 224° |
| 2026-05-06 07:56 | 49.63869 | 4.02174 | 37842 ft | 462 kts | 226° |
| 2026-05-06 07:56 | 49.59404 | 3.95065 | 37840 ft | 461 kts | 224° |
| 2026-05-06 07:57 | 49.54966 | 3.87947 | 37848 ft | 461 kts | 226° |
| 2026-05-06 07:57 | 49.50494 | 3.80868 | 37848 ft | 461 kts | 224° |
| 2026-05-06 07:58 | 49.46040 | 3.73761 | 37852 ft | 462 kts | 226° |
| 2026-05-06 07:58 | 49.41554 | 3.66703 | 37858 ft | 461 kts | 224° |
| 2026-05-06 07:59 | 49.37094 | 3.59622 | 37864 ft | 461 kts | 225° |
| 2026-05-06 07:59 | 49.32629 | 3.52641 | 37867 ft | 461 kts | 225° |
| 2026-05-06 08:00 | 49.28162 | 3.45584 | 37870 ft | 461 kts | 225° |
| 2026-05-06 08:00 | 49.23663 | 3.38591 | 37872 ft | 461 kts | 225° |
| 2026-05-06 08:01 | 49.19184 | 3.31552 | 37871 ft | 462 kts | 225° |
| 2026-05-06 08:01 | 49.14667 | 3.24572 | 37872 ft | 462 kts | 225° |
| 2026-05-06 08:02 | 49.10175 | 3.17550 | 37869 ft | 462 kts | 225° |
| 2026-05-06 08:02 | 49.05650 | 3.10594 | 37868 ft | 462 kts | 225° |
| 2026-05-06 08:03 | 49.01151 | 3.03604 | 37867 ft | 462 kts | 225° |
| 2026-05-06 08:03 | 48.96871 | 2.97059 | 37872 ft | 462 kts | 225° |
| 2026-05-06 08:04 | 48.92471 | 2.90262 | 37883 ft | 462 kts | 225° |
| 2026-05-06 08:04 | 48.88079 | 2.83577 | 37884 ft | 463 kts | 224° |
| 2026-05-06 08:05 | 48.83552 | 2.76623 | 37884 ft | 463 kts | 225° |
| 2026-05-06 08:05 | 48.79623 | 2.68925 | 37870 ft | 465 kts | 236° |
| 2026-05-06 08:06 | 48.75970 | 2.60837 | 37870 ft | 464 kts | 233° |
| 2026-05-06 08:06 | 48.72294 | 2.52819 | 37884 ft | 464 kts | 236° |
| 2026-05-06 08:07 | 48.69276 | 2.46109 | 37882 ft | 464 kts | 234° |
| 2026-05-06 08:07 | 48.65555 | 2.38144 | 37890 ft | 463 kts | 236° |
| 2026-05-06 08:08 | 48.61922 | 2.30101 | 37888 ft | 463 kts | 234° |
| 2026-05-06 08:08 | 48.58044 | 2.22359 | 37879 ft | 461 kts | 222° |
| 2026-05-06 08:09 | 48.55453 | 2.19523 | 37914 ft | 464 kts | 208° |
| 2026-05-06 08:09 | 48.52445 | 2.17767 | 37897 ft | 464 kts | 194° |
| 2026-05-06 08:09 | 48.46128 | 2.15720 | 37864 ft | 464 kts | 193° |
| 2026-05-06 08:10 | 48.39815 | 2.13679 | 37862 ft | 464 kts | 192° |
| 2026-05-06 08:10 | 48.33501 | 2.11668 | 37861 ft | 463 kts | 193° |
| 2026-05-06 08:11 | 48.27156 | 2.10246 | 37895 ft | 463 kts | 175° |
| 2026-05-06 08:11 | 48.20740 | 2.11681 | 37866 ft | 466 kts | 173° |
| 2026-05-06 08:12 | 48.14316 | 2.12849 | 37867 ft | 464 kts | 175° |
| 2026-05-06 08:12 | 48.11150 | 2.12783 | 37935 ft | 461 kts | 188° |
| 2026-05-06 08:12 | 48.07913 | 2.12071 | 37878 ft | 467 kts | 188° |
| 2026-05-06 08:13 | 48.01530 | 2.10962 | 37878 ft | 464 kts | 187° |
| 2026-05-06 08:13 | 47.95134 | 2.09624 | 37881 ft | 464 kts | 188° |
| 2026-05-06 08:14 | 47.88724 | 2.08502 | 37886 ft | 464 kts | 187° |
| 2026-05-06 08:14 | 47.82328 | 2.07193 | 37890 ft | 464 kts | 188° |
| 2026-05-06 08:15 | 47.75910 | 2.06060 | 37889 ft | 464 kts | 187° |
| 2026-05-06 08:15 | 47.69501 | 2.04766 | 37875 ft | 465 kts | 188° |
| 2026-05-06 08:16 | 47.63100 | 2.03468 | 37863 ft | 463 kts | 197° |
| 2026-05-06 08:16 | 47.57111 | 1.99883 | 37848 ft | 467 kts | 201° |
| 2026-05-06 08:17 | 47.51032 | 1.96636 | 37865 ft | 464 kts | 202° |
| 2026-05-06 08:17 | 47.45081 | 1.92937 | 37873 ft | 464 kts | 201° |
| 2026-05-06 08:18 | 47.39018 | 1.89668 | 37884 ft | 464 kts | 201° |
| 2026-05-06 08:18 | 47.33051 | 1.86033 | 37890 ft | 464 kts | 201° |
| 2026-05-06 08:19 | 47.27032 | 1.82757 | 37890 ft | 464 kts | 201° |
| 2026-05-06 08:19 | 47.21010 | 1.79149 | 37891 ft | 464 kts | 201° |
| 2026-05-06 08:20 | 47.14996 | 1.75890 | 37887 ft | 464 kts | 201° |
| 2026-05-06 08:20 | 47.08997 | 1.72391 | 37883 ft | 464 kts | 201° |
| 2026-05-06 08:21 | 47.02940 | 1.69098 | 37888 ft | 464 kts | 201° |
| 2026-05-06 08:21 | 46.96931 | 1.65629 | 37891 ft | 464 kts | 201° |
| 2026-05-06 08:22 | 46.90875 | 1.62335 | 37887 ft | 464 kts | 201° |
| 2026-05-06 08:22 | 46.84864 | 1.58898 | 37888 ft | 464 kts | 201° |
| 2026-05-06 08:23 | 46.78819 | 1.55611 | 37890 ft | 464 kts | 201° |
| 2026-05-06 08:23 | 46.72806 | 1.52203 | 37886 ft | 464 kts | 201° |
| 2026-05-06 08:24 | 46.66763 | 1.48920 | 37882 ft | 463 kts | 201° |
| 2026-05-06 08:24 | 46.60748 | 1.45540 | 37879 ft | 463 kts | 201° |
| 2026-05-06 08:25 | 46.54712 | 1.42265 | 37876 ft | 463 kts | 201° |
| 2026-05-06 08:25 | 46.48702 | 1.38913 | 37873 ft | 462 kts | 201° |
| 2026-05-06 08:26 | 46.42676 | 1.35652 | 37883 ft | 463 kts | 202° |
| 2026-05-06 08:26 | 46.36658 | 1.32317 | 37883 ft | 463 kts | 201° |
| 2026-05-06 08:27 | 46.30624 | 1.29061 | 37881 ft | 463 kts | 202° |
| 2026-05-06 08:27 | 46.24601 | 1.25747 | 37882 ft | 463 kts | 201° |
| 2026-05-06 08:28 | 46.18556 | 1.22492 | 37888 ft | 464 kts | 202° |
| 2026-05-06 08:28 | 46.12513 | 1.19189 | 37896 ft | 464 kts | 201° |
| 2026-05-06 08:29 | 46.06463 | 1.15940 | 37901 ft | 464 kts | 201° |
| 2026-05-06 08:29 | 46.00408 | 1.12654 | 37912 ft | 465 kts | 201° |
| 2026-05-06 08:30 | 45.94343 | 1.09404 | 37914 ft | 466 kts | 202° |
| 2026-05-06 08:30 | 45.88312 | 1.06156 | 37920 ft | 466 kts | 201° |
| 2026-05-06 08:31 | 45.82259 | 1.02825 | 37903 ft | 464 kts | 208° |
| 2026-05-06 08:31 | 45.79612 | 1.00222 | 37969 ft | 462 kts | 221° |
| 2026-05-06 08:31 | 45.77179 | 0.97176 | 37896 ft | 465 kts | 221° |
| 2026-05-06 08:32 | 45.72169 | 0.91365 | 37892 ft | 463 kts | 220° |
| 2026-05-06 08:32 | 45.67295 | 0.85348 | 37888 ft | 462 kts | 221° |
| 2026-05-06 08:33 | 45.62292 | 0.79555 | 37887 ft | 463 kts | 220° |
| 2026-05-06 08:33 | 45.57396 | 0.73582 | 37886 ft | 463 kts | 221° |
| 2026-05-06 08:34 | 45.49936 | 0.64839 | 37904 ft | 463 kts | 221° |
| 2026-05-06 08:35 | 45.44996 | 0.58944 | 37900 ft | 464 kts | 219° |
| 2026-05-06 08:35 | 45.40018 | 0.53120 | 37898 ft | 463 kts | 221° |
| 2026-05-06 08:36 | 45.35065 | 0.47255 | 37910 ft | 463 kts | 220° |
| 2026-05-06 08:36 | 45.30086 | 0.41438 | 37900 ft | 463 kts | 221° |
| 2026-05-06 08:37 | 45.25119 | 0.35603 | 37901 ft | 464 kts | 220° |
| 2026-05-06 08:37 | 45.20132 | 0.29789 | 37906 ft | 464 kts | 221° |
| 2026-05-06 08:38 | 45.15155 | 0.23985 | 37897 ft | 463 kts | 220° |
| 2026-05-06 08:38 | 45.10177 | 0.18191 | 37905 ft | 464 kts | 221° |
| 2026-05-06 08:39 | 45.05218 | 0.12449 | 37901 ft | 463 kts | 220° |
| 2026-05-06 08:39 | 45.00241 | 0.06673 | 37908 ft | 463 kts | 220° |
| 2026-05-06 08:40 | 44.95244 | 0.00925 | 37902 ft | 463 kts | 220° |
| 2026-05-06 08:40 | 44.90267 | -0.04836 | 37927 ft | 462 kts | 220° |
| 2026-05-06 08:41 | 44.85275 | -0.10542 | 37930 ft | 461 kts | 220° |
| 2026-05-06 08:41 | 44.80312 | -0.16269 | 37894 ft | 461 kts | 220° |
| 2026-05-06 08:42 | 44.75321 | -0.21942 | 37888 ft | 462 kts | 220° |
| 2026-05-06 08:42 | 44.70343 | -0.27657 | 37926 ft | 461 kts | 220° |
| 2026-05-06 08:43 | 44.65353 | -0.33307 | 37939 ft | 459 kts | 219° |
| 2026-05-06 08:43 | 44.60131 | -0.38399 | 37892 ft | 461 kts | 216° |
| 2026-05-06 08:44 | 44.54835 | -0.43571 | 37907 ft | 460 kts | 216° |
| 2026-05-06 08:44 | 44.49562 | -0.48571 | 37950 ft | 460 kts | 216° |
| 2026-05-06 08:45 | 44.44259 | -0.53714 | 37935 ft | 461 kts | 216° |
| 2026-05-06 08:45 | 44.38980 | -0.58704 | 37906 ft | 461 kts | 216° |
| 2026-05-06 08:46 | 44.33709 | -0.63787 | 37943 ft | 460 kts | 216° |
| 2026-05-06 08:46 | 44.28406 | -0.68786 | 37954 ft | 459 kts | 216° |
| 2026-05-06 08:47 | 44.23279 | -0.74091 | 37947 ft | 459 kts | 218° |
| 2026-05-06 08:47 | 44.18073 | -0.79255 | 37946 ft | 459 kts | 218° |
| 2026-05-06 08:48 | 44.12954 | -0.84595 | 37937 ft | 460 kts | 218° |
| 2026-05-06 08:48 | 44.07754 | -0.89765 | 37950 ft | 459 kts | 218° |
| 2026-05-06 08:49 | 44.02632 | -0.95058 | 37955 ft | 459 kts | 218° |
| 2026-05-06 08:49 | 43.97443 | -1.00219 | 37967 ft | 458 kts | 218° |
| 2026-05-06 08:50 | 43.92303 | -1.05484 | 37961 ft | 460 kts | 218° |
| 2026-05-06 08:50 | 43.87114 | -1.10647 | 37968 ft | 459 kts | 218° |
| 2026-05-06 08:51 | 43.81968 | -1.15872 | 37956 ft | 457 kts | 218° |
| 2026-05-06 08:51 | 43.76804 | -1.21006 | 37976 ft | 457 kts | 218° |
| 2026-05-06 08:52 | 43.71694 | -1.26156 | 37969 ft | 458 kts | 218° |
| 2026-05-06 08:52 | 43.66527 | -1.31285 | 37973 ft | 457 kts | 218° |
| 2026-05-06 08:53 | 43.61382 | -1.36432 | 37991 ft | 457 kts | 218° |
| 2026-05-06 08:53 | 43.56216 | -1.41556 | 37987 ft | 457 kts | 218° |
| 2026-05-06 08:54 | 43.51055 | -1.46679 | 38001 ft | 458 kts | 218° |
| 2026-05-06 08:54 | 43.46164 | -1.52180 | 38023 ft | 451 kts | 234° |
| 2026-05-06 08:55 | 43.42663 | -1.59355 | 38001 ft | 451 kts | 237° |
| 2026-05-06 08:55 | 43.39129 | -1.66492 | 38021 ft | 451 kts | 238° |
| 2026-05-06 08:56 | 43.35691 | -1.73705 | 38023 ft | 451 kts | 237° |
| 2026-05-06 08:56 | 43.32164 | -1.80829 | 38022 ft | 451 kts | 238° |
| 2026-05-06 08:57 | 43.29126 | -1.86636 | 38030 ft | 451 kts | 233° |
| 2026-05-06 08:57 | 43.25346 | -1.93520 | 38020 ft | 451 kts | 236° |
| 2026-05-06 08:58 | 43.21554 | -2.00382 | 38024 ft | 452 kts | 233° |
| 2026-05-06 08:58 | 43.17761 | -2.07239 | 38025 ft | 450 kts | 235° |
| 2026-05-06 08:59 | 43.13963 | -2.14066 | 38024 ft | 451 kts | 234° |
| 2026-05-06 08:59 | 43.10171 | -2.20905 | 38024 ft | 451 kts | 235° |
| 2026-05-06 09:00 | 43.06359 | -2.27715 | 38029 ft | 451 kts | 234° |
| 2026-05-06 09:00 | 43.02563 | -2.34536 | 38023 ft | 451 kts | 235° |
| 2026-05-06 09:01 | 42.98741 | -2.41325 | 38024 ft | 451 kts | 234° |
| 2026-05-06 09:01 | 42.94940 | -2.48130 | 38026 ft | 450 kts | 234° |
| 2026-05-06 09:02 | 42.91113 | -2.54894 | 38027 ft | 450 kts | 234° |
| 2026-05-06 09:02 | 42.87307 | -2.61681 | 38030 ft | 451 kts | 234° |
| 2026-05-06 09:03 | 42.83467 | -2.68430 | 38026 ft | 450 kts | 234° |
| 2026-05-06 09:03 | 42.79663 | -2.75189 | 38012 ft | 449 kts | 234° |
| 2026-05-06 09:04 | 42.75825 | -2.81902 | 38030 ft | 449 kts | 234° |
| 2026-05-06 09:04 | 42.72026 | -2.88628 | 38022 ft | 448 kts | 234° |
| 2026-05-06 09:05 | 42.68282 | -2.95407 | 38015 ft | 449 kts | 235° |
| 2026-05-06 09:05 | 42.64525 | -3.02117 | 38033 ft | 449 kts | 234° |
| 2026-05-06 09:06 | 42.60741 | -3.08937 | 38027 ft | 449 kts | 235° |
| 2026-05-06 09:06 | 42.56953 | -3.15666 | 38018 ft | 448 kts | 234° |
| 2026-05-06 09:07 | 42.53197 | -3.22406 | 38024 ft | 447 kts | 234° |
| 2026-05-06 09:07 | 42.49436 | -3.29057 | 38021 ft | 447 kts | 234° |
| 2026-05-06 09:08 | 42.45683 | -3.35759 | 38018 ft | 446 kts | 234° |
| 2026-05-06 09:08 | 42.41900 | -3.42431 | 38016 ft | 446 kts | 234° |
| 2026-05-06 09:09 | 42.38136 | -3.49105 | 38015 ft | 446 kts | 234° |
| 2026-05-06 09:09 | 42.34360 | -3.55747 | 38013 ft | 445 kts | 234° |
| 2026-05-06 09:10 | 42.30590 | -3.62395 | 38016 ft | 446 kts | 234° |
| 2026-05-06 09:10 | 42.26804 | -3.69037 | 38021 ft | 446 kts | 234° |
| 2026-05-06 09:11 | 42.23017 | -3.75669 | 38020 ft | 446 kts | 234° |
| 2026-05-06 09:11 | 42.19235 | -3.82290 | 38016 ft | 445 kts | 234° |
| 2026-05-06 09:12 | 42.15436 | -3.88899 | 38025 ft | 446 kts | 234° |
| 2026-05-06 09:12 | 42.11641 | -3.95528 | 38040 ft | 446 kts | 234° |
| 2026-05-06 09:13 | 42.07823 | -4.02129 | 38039 ft | 447 kts | 234° |
| 2026-05-06 09:13 | 42.04023 | -4.08743 | 37999 ft | 447 kts | 234° |
| 2026-05-06 09:14 | 41.99584 | -4.14587 | 38007 ft | 452 kts | 222° |
| 2026-05-06 09:14 | 41.94906 | -4.20179 | 37989 ft | 449 kts | 225° |
| 2026-05-06 09:15 | 41.90154 | -4.25653 | 37998 ft | 450 kts | 222° |
| 2026-05-06 09:15 | 41.85495 | -4.31160 | 38018 ft | 449 kts | 225° |
| 2026-05-06 09:16 | 41.80760 | -4.36624 | 38015 ft | 449 kts | 222° |
| 2026-05-06 09:16 | 41.76066 | -4.42131 | 38015 ft | 448 kts | 224° |
| 2026-05-06 09:17 | 41.71335 | -4.47578 | 38019 ft | 448 kts | 223° |
| 2026-05-06 09:17 | 41.66639 | -4.53060 | 38014 ft | 448 kts | 224° |
| 2026-05-06 09:18 | 41.61908 | -4.58487 | 38016 ft | 448 kts | 223° |
| 2026-05-06 09:18 | 41.57210 | -4.63950 | 38020 ft | 447 kts | 224° |
| 2026-05-06 09:19 | 41.52482 | -4.69350 | 38022 ft | 447 kts | 223° |
| 2026-05-06 09:19 | 41.47787 | -4.74790 | 38021 ft | 447 kts | 224° |
| 2026-05-06 09:20 | 41.43049 | -4.80179 | 38012 ft | 447 kts | 223° |
| 2026-05-06 09:20 | 41.38349 | -4.85603 | 38010 ft | 447 kts | 223° |
| 2026-05-06 09:21 | 41.33615 | -4.90966 | 38009 ft | 447 kts | 223° |
| 2026-05-06 09:21 | 41.28908 | -4.96377 | 38014 ft | 447 kts | 223° |
| 2026-05-06 09:22 | 41.24168 | -5.01721 | 38010 ft | 447 kts | 223° |
| 2026-05-06 09:22 | 41.19458 | -5.07111 | 38015 ft | 447 kts | 223° |
| 2026-05-06 09:23 | 41.14709 | -5.12447 | 38009 ft | 447 kts | 223° |
| 2026-05-06 09:23 | 41.09983 | -5.17826 | 38017 ft | 447 kts | 223° |
| 2026-05-06 09:24 | 41.05234 | -5.23153 | 38019 ft | 447 kts | 223° |
| 2026-05-06 09:24 | 41.00507 | -5.28496 | 38020 ft | 447 kts | 223° |
| 2026-05-06 09:25 | 40.95761 | -5.33817 | 38032 ft | 447 kts | 223° |
| 2026-05-06 09:25 | 40.91016 | -5.39141 | 38033 ft | 447 kts | 223° |
| 2026-05-06 09:26 | 40.86274 | -5.44455 | 38021 ft | 447 kts | 223° |
| 2026-05-06 09:26 | 40.81519 | -5.49755 | 38024 ft | 447 kts | 223° |
| 2026-05-06 09:27 | 40.76777 | -5.55057 | 38008 ft | 447 kts | 223° |
| 2026-05-06 09:27 | 40.72020 | -5.60334 | 37998 ft | 447 kts | 223° |
| 2026-05-06 09:28 | 40.67273 | -5.65623 | 37985 ft | 447 kts | 223° |
| 2026-05-06 09:28 | 40.62521 | -5.70876 | 38004 ft | 446 kts | 223° |
| 2026-05-06 09:29 | 40.57777 | -5.76137 | 38020 ft | 445 kts | 223° |
| 2026-05-06 09:29 | 40.53055 | -5.81342 | 38014 ft | 445 kts | 223° |
| 2026-05-06 09:30 | 40.48309 | -5.86580 | 38001 ft | 446 kts | 223° |
| 2026-05-06 09:30 | 40.43556 | -5.91811 | 38000 ft | 446 kts | 223° |
| 2026-05-06 09:31 | 40.38803 | -5.97026 | 38004 ft | 446 kts | 223° |
| 2026-05-06 09:31 | 40.35338 | -6.00830 | 38002 ft | 445 kts | 223° |
| 2026-05-06 09:32 | 40.30580 | -6.06036 | 38000 ft | 447 kts | 222° |
| 2026-05-06 09:32 | 40.25711 | -6.11367 | 38002 ft | 464 kts | 222° |
| 2026-05-06 09:33 | 40.20738 | -6.16772 | 38001 ft | 465 kts | 222° |
| 2026-05-06 09:33 | 40.15774 | -6.22193 | 38001 ft | 465 kts | 222° |
| 2026-05-06 09:34 | 40.10796 | -6.27582 | 38003 ft | 464 kts | 222° |
| 2026-05-06 09:34 | 40.05835 | -6.32976 | 37997 ft | 464 kts | 222° |
| 2026-05-06 09:35 | 40.00864 | -6.38343 | 37990 ft | 464 kts | 222° |
| 2026-05-06 09:35 | 39.95900 | -6.43710 | 38002 ft | 464 kts | 222° |
| 2026-05-06 09:36 | 39.90924 | -6.49064 | 37989 ft | 464 kts | 222° |
| 2026-05-06 09:36 | 39.85953 | -6.54416 | 38005 ft | 463 kts | 222° |
| 2026-05-06 09:37 | 39.80979 | -6.59750 | 38008 ft | 462 kts | 222° |
| 2026-05-06 09:37 | 39.76079 | -6.64997 | 37997 ft | 450 kts | 222° |
| 2026-05-06 09:38 | 39.71289 | -6.70122 | 37992 ft | 443 kts | 222° |
| 2026-05-06 09:38 | 39.66526 | -6.75203 | 38002 ft | 443 kts | 222° |
| 2026-05-06 09:39 | 39.61796 | -6.80244 | 38005 ft | 443 kts | 222° |
| 2026-05-06 09:39 | 39.57025 | -6.85314 | 38008 ft | 443 kts | 222° |
| 2026-05-06 09:40 | 39.52259 | -6.90376 | 38005 ft | 443 kts | 222° |
| 2026-05-06 09:40 | 39.45102 | -6.97954 | 38008 ft | 443 kts | 222° |
| 2026-05-06 09:41 | 39.40321 | -7.03000 | 38011 ft | 444 kts | 221° |
| 2026-05-06 09:41 | 39.35543 | -7.08046 | 38004 ft | 443 kts | 221° |
| 2026-05-06 09:42 | 39.30760 | -7.13074 | 38004 ft | 443 kts | 221° |
| 2026-05-06 09:42 | 39.25980 | -7.18101 | 38006 ft | 443 kts | 221° |
| 2026-05-06 09:43 | 39.21990 | -7.22227 | 37992 ft | 443 kts | 217° |
| 2026-05-06 09:43 | 39.16507 | -7.25993 | 37989 ft | 448 kts | 212° |
| 2026-05-06 09:44 | 39.11100 | -7.29955 | 37992 ft | 447 kts | 211° |
| 2026-05-06 09:44 | 39.05543 | -7.33610 | 37994 ft | 448 kts | 211° |
| 2026-05-06 09:45 | 39.00116 | -7.37517 | 38003 ft | 448 kts | 211° |
| 2026-05-06 09:45 | 38.94580 | -7.41194 | 38013 ft | 447 kts | 211° |
| 2026-05-06 09:46 | 38.89136 | -7.45059 | 38015 ft | 447 kts | 211° |
| 2026-05-06 09:46 | 38.83651 | -7.48723 | 38006 ft | 447 kts | 211° |
| 2026-05-06 09:47 | 38.78205 | -7.52544 | 38007 ft | 446 kts | 211° |
| 2026-05-06 09:47 | 38.72705 | -7.56234 | 38010 ft | 446 kts | 211° |
| 2026-05-06 09:48 | 38.67261 | -7.60016 | 38015 ft | 445 kts | 211° |
| 2026-05-06 09:48 | 38.61775 | -7.63705 | 38016 ft | 445 kts | 211° |
| 2026-05-06 09:49 | 38.56322 | -7.67460 | 38005 ft | 446 kts | 211° |
| 2026-05-06 09:49 | 38.50839 | -7.71151 | 38012 ft | 445 kts | 211° |
| 2026-05-06 09:50 | 38.45385 | -7.74880 | 38013 ft | 445 kts | 211° |
| 2026-05-06 09:50 | 38.39908 | -7.78566 | 38012 ft | 445 kts | 211° |
| 2026-05-06 09:51 | 38.34451 | -7.82274 | 38013 ft | 445 kts | 211° |
| 2026-05-06 09:51 | 38.28979 | -7.85955 | 38006 ft | 445 kts | 211° |
| 2026-05-06 09:52 | 38.23508 | -7.89646 | 38046 ft | 445 kts | 211° |
| 2026-05-06 09:52 | 38.18036 | -7.93327 | 38016 ft | 445 kts | 211° |
| 2026-05-06 09:53 | 38.12594 | -7.96976 | 37999 ft | 445 kts | 211° |
| 2026-05-06 09:53 | 38.07121 | -8.00653 | 38031 ft | 445 kts | 211° |
| 2026-05-06 09:54 | 38.01646 | -8.04306 | 38037 ft | 445 kts | 211° |
| 2026-05-06 09:54 | 37.96171 | -8.07976 | 38031 ft | 445 kts | 211° |
| 2026-05-06 09:55 | 37.90688 | -8.11619 | 38021 ft | 445 kts | 211° |
| 2026-05-06 09:55 | 37.85215 | -8.15277 | 38018 ft | 445 kts | 211° |
| 2026-05-06 09:56 | 37.79732 | -8.18907 | 38022 ft | 445 kts | 211° |
| 2026-05-06 09:56 | 37.74256 | -8.22553 | 38023 ft | 445 kts | 211° |
| 2026-05-06 09:57 | 37.68768 | -8.26180 | 38024 ft | 445 kts | 211° |
| 2026-05-06 09:57 | 37.63282 | -8.29812 | 38024 ft | 446 kts | 211° |
| 2026-05-06 09:58 | 37.57830 | -8.33409 | 38027 ft | 445 kts | 211° |
| 2026-05-06 09:58 | 37.52350 | -8.37022 | 38024 ft | 444 kts | 211° |
| 2026-05-06 09:59 | 37.46870 | -8.40629 | 38024 ft | 444 kts | 211° |
| 2026-05-06 09:59 | 37.41395 | -8.44221 | 38016 ft | 444 kts | 211° |
| 2026-05-06 10:00 | 37.35928 | -8.47814 | 38021 ft | 443 kts | 211° |
| 2026-05-06 10:00 | 37.30456 | -8.51387 | 38023 ft | 443 kts | 211° |
| 2026-05-06 10:01 | 37.24987 | -8.54971 | 38023 ft | 443 kts | 211° |
| 2026-05-06 10:01 | 37.19508 | -8.58539 | 38023 ft | 444 kts | 211° |
| 2026-05-06 10:02 | 37.14033 | -8.62113 | 38027 ft | 444 kts | 211° |
| 2026-05-06 10:02 | 37.08552 | -8.65669 | 38017 ft | 443 kts | 211° |
| 2026-05-06 10:03 | 37.03078 | -8.69234 | 38022 ft | 443 kts | 211° |
| 2026-05-06 10:03 | 36.97601 | -8.72776 | 38040 ft | 442 kts | 211° |
| 2026-05-06 10:04 | 36.92137 | -8.76317 | 38023 ft | 442 kts | 210° |
| 2026-05-06 10:04 | 36.86674 | -8.79847 | 38004 ft | 442 kts | 211° |
| 2026-05-06 10:05 | 36.81207 | -8.83370 | 38009 ft | 442 kts | 210° |
| 2026-05-06 10:05 | 36.75788 | -8.86869 | 38038 ft | 441 kts | 211° |
| 2026-05-06 10:06 | 36.70324 | -8.90370 | 38032 ft | 441 kts | 211° |
| 2026-05-06 10:06 | 36.64872 | -8.93884 | 38030 ft | 441 kts | 210° |
| 2026-05-06 10:07 | 36.59410 | -8.97372 | 38030 ft | 441 kts | 211° |
| 2026-05-06 10:07 | 36.53963 | -9.00870 | 38027 ft | 440 kts | 210° |
| 2026-05-06 10:08 | 36.48519 | -9.04340 | 38029 ft | 440 kts | 211° |
| 2026-05-06 10:08 | 36.43063 | -9.07824 | 38444 ft | 439 kts | 210° |
| 2026-05-06 10:09 | 36.40361 | -9.09534 | 39029 ft | 436 kts | 211° |
| 2026-05-06 10:09 | 36.37640 | -9.11280 | 39038 ft | 444 kts | 211° |
| 2026-05-06 10:09 | 36.32151 | -9.14763 | 39025 ft | 441 kts | 210° |
| 2026-05-06 10:10 | 36.26702 | -9.18236 | 39024 ft | 440 kts | 211° |
| 2026-05-06 10:10 | 36.21247 | -9.21676 | 39035 ft | 440 kts | 210° |
| 2026-05-06 10:11 | 36.15806 | -9.25141 | 39032 ft | 439 kts | 211° |
| 2026-05-06 10:11 | 36.10357 | -9.28561 | 39051 ft | 439 kts | 210° |
| 2026-05-06 10:12 | 36.04919 | -9.32015 | 39050 ft | 439 kts | 210° |
| 2026-05-06 10:12 | 35.99462 | -9.35431 | 39045 ft | 440 kts | 211° |
| 2026-05-06 10:13 | 35.94009 | -9.38738 | 39041 ft | 440 kts | 208° |
| 2026-05-06 10:13 | 35.88497 | -9.42026 | 39037 ft | 439 kts | 210° |
| 2026-05-06 10:14 | 35.82967 | -9.45256 | 39035 ft | 440 kts | 208° |
| 2026-05-06 10:14 | 35.77453 | -9.48519 | 39040 ft | 439 kts | 210° |
| 2026-05-06 10:15 | 35.71921 | -9.51735 | 39038 ft | 440 kts | 208° |
| 2026-05-06 10:15 | 35.66410 | -9.54991 | 39036 ft | 439 kts | 210° |
| 2026-05-06 10:16 | 35.60878 | -9.58194 | 39037 ft | 440 kts | 209° |
| 2026-05-06 10:16 | 35.55370 | -9.61441 | 39039 ft | 439 kts | 209° |
| 2026-05-06 10:17 | 35.49834 | -9.64634 | 39031 ft | 439 kts | 209° |
| 2026-05-06 10:17 | 35.44335 | -9.67866 | 39044 ft | 439 kts | 209° |
| 2026-05-06 10:18 | 35.38810 | -9.71045 | 39042 ft | 438 kts | 209° |
| 2026-05-06 10:18 | 35.33308 | -9.74266 | 39038 ft | 438 kts | 209° |
| 2026-05-06 10:19 | 35.27790 | -9.77435 | 39042 ft | 437 kts | 209° |
| 2026-05-06 10:19 | 35.22290 | -9.80641 | 39041 ft | 438 kts | 209° |
| 2026-05-06 10:20 | 35.16772 | -9.83806 | 39042 ft | 438 kts | 209° |
| 2026-05-06 10:20 | 35.11272 | -9.86994 | 39039 ft | 437 kts | 209° |
| 2026-05-06 10:21 | 35.05767 | -9.90152 | 39043 ft | 438 kts | 209° |
| 2026-05-06 10:21 | 35.00255 | -9.93327 | 39050 ft | 438 kts | 208° |
| 2026-05-06 10:22 | 34.94744 | -9.96490 | 39045 ft | 438 kts | 209° |
| 2026-05-06 10:22 | 34.89226 | -9.99648 | 39041 ft | 438 kts | 208° |
| 2026-05-06 10:23 | 34.83750 | -10.02790 | 39035 ft | 437 kts | 209° |
| 2026-05-06 10:23 | 34.78242 | -10.05926 | 39043 ft | 437 kts | 209° |
| 2026-05-06 10:24 | 34.72746 | -10.09077 | 39048 ft | 436 kts | 209° |
| 2026-05-06 10:24 | 34.67249 | -10.12193 | 39040 ft | 436 kts | 209° |
| 2026-05-06 10:25 | 34.61760 | -10.15332 | 39049 ft | 436 kts | 209° |
| 2026-05-06 10:25 | 34.56259 | -10.18442 | 39048 ft | 436 kts | 209° |
| 2026-05-06 10:26 | 34.50775 | -10.21567 | 39046 ft | 435 kts | 209° |
| 2026-05-06 10:26 | 34.45286 | -10.24665 | 39046 ft | 435 kts | 209° |
| 2026-05-06 10:27 | 34.39803 | -10.27773 | 39042 ft | 434 kts | 209° |
| 2026-05-06 10:27 | 34.34327 | -10.30863 | 39045 ft | 434 kts | 209° |
| 2026-05-06 10:28 | 34.28850 | -10.33952 | 39045 ft | 434 kts | 208° |
| 2026-05-06 10:28 | 34.23376 | -10.37039 | 39044 ft | 433 kts | 209° |
| 2026-05-06 10:29 | 34.17906 | -10.40107 | 39047 ft | 434 kts | 209° |
| 2026-05-06 10:29 | 34.12433 | -10.43191 | 39052 ft | 434 kts | 209° |
| 2026-05-06 10:30 | 34.06989 | -10.46231 | 39048 ft | 434 kts | 209° |
| 2026-05-06 10:30 | 34.01526 | -10.49303 | 39054 ft | 433 kts | 209° |
| 2026-05-06 10:31 | 33.96049 | -10.52354 | 39049 ft | 433 kts | 209° |
| 2026-05-06 10:31 | 33.90586 | -10.55414 | 39049 ft | 433 kts | 209° |
| 2026-05-06 10:32 | 33.85120 | -10.58453 | 39037 ft | 432 kts | 209° |
| 2026-05-06 10:32 | 33.79669 | -10.61494 | 39050 ft | 432 kts | 209° |
| 2026-05-06 10:33 | 33.74211 | -10.64526 | 39049 ft | 432 kts | 209° |
| 2026-05-06 10:33 | 33.68754 | -10.67555 | 39050 ft | 432 kts | 209° |
| 2026-05-06 10:34 | 33.64221 | -10.70070 | 39041 ft | 431 kts | 209° |
| 2026-05-06 10:34 | 33.58774 | -10.73085 | 39057 ft | 431 kts | 209° |
| 2026-05-06 10:35 | 33.53323 | -10.76104 | 39057 ft | 431 kts | 209° |
| 2026-05-06 10:35 | 33.47865 | -10.79110 | 39057 ft | 432 kts | 209° |
| 2026-05-06 10:36 | 33.42415 | -10.82126 | 39056 ft | 432 kts | 209° |
| 2026-05-06 10:36 | 33.36956 | -10.85121 | 39057 ft | 432 kts | 209° |
| 2026-05-06 10:37 | 33.31494 | -10.88136 | 39050 ft | 432 kts | 209° |
| 2026-05-06 10:37 | 33.26037 | -10.91123 | 39056 ft | 431 kts | 209° |
| 2026-05-06 10:38 | 33.20590 | -10.94118 | 39051 ft | 431 kts | 209° |
| 2026-05-06 10:38 | 33.15136 | -10.97101 | 39050 ft | 431 kts | 210° |
| 2026-05-06 10:39 | 33.09680 | -11.00084 | 39053 ft | 431 kts | 209° |
| 2026-05-06 10:39 | 33.04234 | -11.03063 | 39049 ft | 430 kts | 210° |
| 2026-05-06 10:40 | 32.98795 | -11.06022 | 39045 ft | 429 kts | 210° |
| 2026-05-06 10:40 | 32.93366 | -11.08989 | 39047 ft | 429 kts | 210° |
| 2026-05-06 10:41 | 32.87939 | -11.11929 | 39044 ft | 428 kts | 210° |
| 2026-05-06 10:41 | 32.82539 | -11.14876 | 39051 ft | 427 kts | 210° |
| 2026-05-06 10:42 | 32.77133 | -11.17796 | 39044 ft | 426 kts | 210° |
| 2026-05-06 10:42 | 32.71787 | -11.20702 | 39055 ft | 425 kts | 210° |
| 2026-05-06 10:43 | 32.66403 | -11.23608 | 39055 ft | 424 kts | 210° |
| 2026-05-06 10:44 | 32.58357 | -11.27952 | 39056 ft | 423 kts | 210° |
| 2026-05-06 10:44 | 32.53014 | -11.30843 | 39049 ft | 422 kts | 210° |
| 2026-05-06 10:45 | 32.47676 | -11.33709 | 39045 ft | 421 kts | 210° |
| 2026-05-06 10:45 | 32.42357 | -11.36576 | 39050 ft | 420 kts | 210° |
| 2026-05-06 10:46 | 32.37040 | -11.39429 | 39051 ft | 419 kts | 211° |
| 2026-05-06 10:46 | 32.31733 | -11.42275 | 39046 ft | 419 kts | 211° |
| 2026-05-06 10:47 | 32.26440 | -11.45115 | 39053 ft | 418 kts | 211° |
| 2026-05-06 10:47 | 32.21143 | -11.47943 | 39060 ft | 417 kts | 211° |
| 2026-05-06 10:48 | 32.15857 | -11.50777 | 39064 ft | 417 kts | 211° |
| 2026-05-06 10:48 | 32.10567 | -11.53590 | 39067 ft | 416 kts | 211° |
| 2026-05-06 10:49 | 32.05296 | -11.56409 | 39058 ft | 416 kts | 211° |
| 2026-05-06 10:49 | 32.00033 | -11.59201 | 39062 ft | 414 kts | 211° |
| 2026-05-06 10:50 | 31.94785 | -11.61999 | 39057 ft | 414 kts | 211° |
| 2026-05-06 10:50 | 31.89542 | -11.64779 | 39057 ft | 413 kts | 211° |
| 2026-05-06 10:51 | 31.84314 | -11.67552 | 39052 ft | 412 kts | 211° |
| 2026-05-06 10:51 | 31.79136 | -11.70299 | 39058 ft | 410 kts | 212° |
| 2026-05-06 10:52 | 31.73928 | -11.73046 | 39053 ft | 410 kts | 212° |
| 2026-05-06 10:52 | 31.68738 | -11.75798 | 39055 ft | 408 kts | 212° |
| 2026-05-06 10:53 | 31.63557 | -11.78522 | 39048 ft | 407 kts | 212° |
| 2026-05-06 10:53 | 31.58400 | -11.81249 | 39051 ft | 406 kts | 212° |
| 2026-05-06 10:54 | 31.53245 | -11.83956 | 39054 ft | 405 kts | 212° |
| 2026-05-06 10:54 | 31.48108 | -11.86661 | 39050 ft | 404 kts | 212° |
| 2026-05-06 10:55 | 31.42983 | -11.89353 | 39045 ft | 403 kts | 212° |
| 2026-05-06 10:55 | 31.37862 | -11.92035 | 39062 ft | 403 kts | 212° |
| 2026-05-06 10:56 | 31.32758 | -11.94716 | 39060 ft | 402 kts | 212° |
| 2026-05-06 10:56 | 31.27657 | -11.97376 | 39060 ft | 401 kts | 212° |
| 2026-05-06 10:57 | 31.22579 | -12.00040 | 39052 ft | 400 kts | 212° |
| 2026-05-06 10:57 | 31.17536 | -12.02664 | 39058 ft | 399 kts | 213° |
| 2026-05-06 10:58 | 31.12474 | -12.05309 | 39054 ft | 399 kts | 212° |
| 2026-05-06 10:58 | 31.07406 | -12.07947 | 39062 ft | 398 kts | 213° |
| 2026-05-06 10:59 | 31.02340 | -12.10580 | 39060 ft | 398 kts | 213° |
| 2026-05-06 10:59 | 30.97288 | -12.13211 | 39043 ft | 397 kts | 213° |
| 2026-05-06 11:00 | 30.92248 | -12.15817 | 39044 ft | 396 kts | 213° |
| 2026-05-06 11:00 | 30.87231 | -12.18429 | 39053 ft | 394 kts | 213° |
| 2026-05-06 11:01 | 30.82211 | -12.21020 | 39048 ft | 394 kts | 213° |
| 2026-05-06 11:01 | 30.77204 | -12.23614 | 39047 ft | 394 kts | 213° |
| 2026-05-06 11:02 | 30.72207 | -12.26195 | 39050 ft | 392 kts | 213° |
| 2026-05-06 11:02 | 30.67251 | -12.28749 | 39046 ft | 392 kts | 213° |
| 2026-05-06 11:03 | 30.62241 | -12.31340 | 39042 ft | 392 kts | 213° |
| 2026-05-06 11:03 | 30.57287 | -12.33881 | 39062 ft | 391 kts | 213° |
| 2026-05-06 11:04 | 30.52324 | -12.36442 | 39052 ft | 390 kts | 214° |
| 2026-05-06 11:04 | 30.47849 | -12.39714 | 39064 ft | 377 kts | 225° |
| 2026-05-06 11:05 | 30.43585 | -12.43318 | 39055 ft | 379 kts | 223° |
| 2026-05-06 11:05 | 30.39382 | -12.46984 | 39055 ft | 378 kts | 224° |
| 2026-05-06 11:06 | 30.35119 | -12.50592 | 39055 ft | 380 kts | 223° |
| 2026-05-06 11:06 | 30.30898 | -12.54252 | 39054 ft | 379 kts | 224° |
| 2026-05-06 11:07 | 30.26638 | -12.57857 | 39057 ft | 379 kts | 224° |
| 2026-05-06 11:07 | 30.22467 | -12.61448 | 37857 ft | 368 kts | 224° |
| 2026-05-06 11:07 | 30.20384 | -12.63228 | 35830 ft | 377 kts | 223° |
| 2026-05-06 11:08 | 30.18252 | -12.65046 | 33956 ft | 383 kts | 223° |
| 2026-05-06 11:08 | 30.16094 | -12.66886 | 31886 ft | 388 kts | 222° |
| 2026-05-06 11:08 | 30.13896 | -12.68765 | 29524 ft | 399 kts | 221° |
| 2026-05-06 11:08 | 30.11629 | -12.70695 | 26840 ft | 410 kts | 221° |
| 2026-05-06 11:09 | 30.09532 | -12.72884 | 25198 ft | 398 kts | 231° |
| 2026-05-06 11:09 | 30.07774 | -12.75210 | 24376 ft | 372 kts | 231° |
| 2026-05-06 11:09 | 30.06077 | -12.77329 | 23867 ft | 346 kts | 230° |
| 2026-05-06 11:09 | 30.04492 | -12.79283 | 23384 ft | 323 kts | 231° |
| 2026-05-06 11:10 | 30.03037 | -12.81221 | 22205 ft | 318 kts | 233° |
| 2026-05-06 11:10 | 30.01600 | -12.83157 | 21022 ft | 317 kts | 231° |
| 2026-05-06 11:10 | 30.00108 | -12.85019 | 19961 ft | 315 kts | 230° |
| 2026-05-06 11:10 | 29.98629 | -12.86868 | 18925 ft | 312 kts | 231° |
| 2026-05-06 11:11 | 29.97233 | -12.88725 | 17867 ft | 310 kts | 232° |
| 2026-05-06 11:11 | 29.95813 | -12.90586 | 16738 ft | 308 kts | 230° |
| 2026-05-06 11:11 | 29.94362 | -12.92390 | 15643 ft | 306 kts | 230° |
| 2026-05-06 11:11 | 29.92939 | -12.94205 | 14599 ft | 304 kts | 232° |
| 2026-05-06 11:12 | 29.91558 | -12.96037 | 13547 ft | 302 kts | 231° |
| 2026-05-06 11:12 | 29.90091 | -12.97740 | 12275 ft | 301 kts | 218° |
| 2026-05-06 11:12 | 29.88197 | -12.98813 | 11183 ft | 303 kts | 202° |
| 2026-05-06 11:12 | 29.86179 | -12.99545 | 9812 ft | 310 kts | 202° |
| 2026-05-06 11:13 | 29.84182 | -13.00383 | 9365 ft | 288 kts | 204° |
| 2026-05-06 11:13 | 29.82319 | -13.01169 | 9471 ft | 301 kts | 202° |
| 2026-05-06 11:13 | 29.80290 | -13.01884 | 9194 ft | 297 kts | 199° |
| 2026-05-06 11:13 | 29.78367 | -13.02558 | 9305 ft | 288 kts | 202° |
| 2026-05-06 11:14 | 29.76485 | -13.03353 | 9291 ft | 285 kts | 204° |
| 2026-05-06 11:14 | 29.74638 | -13.04104 | 9288 ft | 281 kts | 201° |
| 2026-05-06 11:14 | 29.72774 | -13.04769 | 9308 ft | 280 kts | 201° |
| 2026-05-06 11:14 | 29.70920 | -13.05477 | 9290 ft | 281 kts | 203° |
| 2026-05-06 11:15 | 29.69087 | -13.06232 | 9299 ft | 279 kts | 203° |
| 2026-05-06 11:15 | 29.67242 | -13.06938 | 9289 ft | 281 kts | 201° |
| 2026-05-06 11:15 | 29.65282 | -13.07665 | 9309 ft | 314 kts | 201° |
| 2026-05-06 11:15 | 29.63143 | -13.08513 | 9348 ft | 338 kts | 202° |
| 2026-05-06 11:16 | 29.60826 | -13.09426 | 9296 ft | 355 kts | 201° |
| 2026-05-06 11:16 | 29.58444 | -13.10315 | 9287 ft | 366 kts | 200° |
| 2026-05-06 11:16 | 29.56107 | -13.11204 | 8918 ft | 355 kts | 201° |
| 2026-05-06 11:16 | 29.53763 | -13.12129 | 8832 ft | 349 kts | 201° |
| 2026-05-06 11:17 | 29.51407 | -13.13045 | 9030 ft | 372 kts | 201° |
| 2026-05-06 11:17 | 29.48927 | -13.13989 | 8307 ft | 377 kts | 200° |
| 2026-05-06 11:17 | 29.46487 | -13.14915 | 8112 ft | 366 kts | 201° |
| 2026-05-06 11:17 | 29.44049 | -13.15862 | 7779 ft | 367 kts | 201° |
| 2026-05-06 11:18 | 29.41636 | -13.16795 | 7388 ft | 368 kts | 200° |
| 2026-05-06 11:18 | 29.39223 | -13.17711 | 7108 ft | 365 kts | 200° |
| 2026-05-06 11:18 | 29.36815 | -13.18635 | 6825 ft | 363 kts | 201° |
| 2026-05-06 11:18 | 29.34377 | -13.19431 | 6490 ft | 364 kts | 196° |
| 2026-05-06 11:19 | 29.31930 | -13.20182 | 6116 ft | 367 kts | 198° |
| 2026-05-06 11:19 | 29.29510 | -13.21011 | 5804 ft | 362 kts | 199° |
| 2026-05-06 11:19 | 29.27085 | -13.21813 | 5508 ft | 361 kts | 197° |
| 2026-05-06 11:19 | 29.24657 | -13.22557 | 5163 ft | 360 kts | 197° |
| 2026-05-06 11:20 | 29.22262 | -13.23409 | 4809 ft | 360 kts | 200° |
| 2026-05-06 11:20 | 29.19941 | -13.24378 | 4190 ft | 355 kts | 200° |
| 2026-05-06 11:20 | 29.17601 | -13.25246 | 3945 ft | 344 kts | 196° |
| 2026-05-06 11:20 | 29.15331 | -13.25991 | 3681 ft | 344 kts | 196° |
| 2026-05-06 11:21 | 29.13088 | -13.26820 | 3532 ft | 329 kts | 198° |
| 2026-05-06 11:21 | 29.10947 | -13.27652 | 3193 ft | 320 kts | 197° |
| 2026-05-06 11:21 | 29.08852 | -13.28409 | 2822 ft | 312 kts | 195° |
| 2026-05-06 11:21 | 29.06804 | -13.29121 | 2470 ft | 304 kts | 195° |
| 2026-05-06 11:22 | 29.04815 | -13.29848 | 2104 ft | 296 kts | 197° |
| 2026-05-06 11:22 | 29.02891 | -13.30567 | 1889 ft | 281 kts | 196° |
| 2026-05-06 11:22 | 29.01681 | -13.31008 | 1978 ft | 274 kts | 196° |
| 2026-05-06 11:22 | 28.99842 | -13.31663 | 1968 ft | 274 kts | 195° |
| 2026-05-06 11:23 | 28.98045 | -13.32317 | 2004 ft | 275 kts | 195° |
| 2026-05-06 11:23 | 28.96245 | -13.32979 | 1999 ft | 268 kts | 196° |
| 2026-05-06 11:23 | 28.94442 | -13.33630 | 2007 ft | 275 kts | 195° |
| 2026-05-06 11:23 | 28.92045 | -13.34500 | 1991 ft | 273 kts | 197° |
| 2026-05-06 11:24 | 28.90243 | -13.35164 | 1999 ft | 269 kts | 196° |
| 2026-05-06 11:24 | 28.88437 | -13.35814 | 2013 ft | 276 kts | 195° |
| 2026-05-06 11:24 | 28.87207 | -13.36253 | 1989 ft | 270 kts | 195° |
| 2026-05-06 11:24 | 28.85418 | -13.36906 | 2017 ft | 275 kts | 196° |
| 2026-05-06 11:25 | 28.83608 | -13.37568 | 1991 ft | 270 kts | 195° |
| 2026-05-06 11:25 | 28.81793 | -13.38222 | 1999 ft | 273 kts | 195° |
| 2026-05-06 11:25 | 28.79999 | -13.38869 | 2015 ft | 271 kts | 195° |
| 2026-05-06 11:25 | 28.78201 | -13.39524 | 1995 ft | 267 kts | 196° |
| 2026-05-06 11:26 | 28.76415 | -13.40174 | 2011 ft | 274 kts | 195° |
| 2026-05-06 11:26 | 28.74614 | -13.40820 | 1995 ft | 267 kts | 195° |
| 2026-05-06 11:26 | 28.72816 | -13.41474 | 2013 ft | 274 kts | 197° |
| 2026-05-06 11:26 | 28.71198 | -13.42544 | 1832 ft | 271 kts | 227° |
| 2026-05-06 11:27 | 28.70348 | -13.44415 | 2100 ft | 269 kts | 255° |
| 2026-05-06 11:27 | 28.70165 | -13.46561 | 1932 ft | 272 kts | 282° |
| 2026-05-06 11:27 | 28.70842 | -13.48461 | 2089 ft | 262 kts | 301° |
| 2026-05-06 11:27 | 28.71659 | -13.50375 | 1994 ft | 269 kts | 294° |
| 2026-05-06 11:28 | 28.72234 | -13.52318 | 1999 ft | 265 kts | 290° |
| 2026-05-06 11:28 | 28.72902 | -13.54294 | 2001 ft | 265 kts | 297° |
| 2026-05-06 11:28 | 28.73732 | -13.56168 | 2010 ft | 266 kts | 300° |
| 2026-05-06 11:28 | 28.74481 | -13.58091 | 1996 ft | 266 kts | 294° |
| 2026-05-06 11:29 | 28.75099 | -13.60059 | 2001 ft | 262 kts | 292° |
| 2026-05-06 11:29 | 28.75799 | -13.61990 | 2003 ft | 263 kts | 297° |
| 2026-05-06 11:29 | 28.76556 | -13.63833 | 1995 ft | 247 kts | 297° |
| 2026-05-06 11:29 | 28.77194 | -13.65581 | 1989 ft | 232 kts | 294° |
| 2026-05-06 11:30 | 28.77808 | -13.67182 | 2008 ft | 208 kts | 307° |
| 2026-05-06 11:30 | 28.78852 | -13.68115 | 1996 ft | 184 kts | 342° |
| 2026-05-06 11:30 | 28.80106 | -13.68445 | 1972 ft | 187 kts | 3° |
| 2026-05-06 11:30 | 28.81273 | -13.68101 | 2114 ft | 162 kts | 26° |
| 2026-05-06 11:31 | 28.82285 | -13.67593 | 1998 ft | 156 kts | 25° |
| 2026-05-06 11:31 | 28.83197 | -13.67108 | 2017 ft | 140 kts | 28° |
| 2026-05-06 11:31 | 28.84041 | -13.66607 | 2002 ft | 132 kts | 28° |
| 2026-05-06 11:31 | 28.84866 | -13.66149 | 1980 ft | 135 kts | 28° |
| 2026-05-06 11:32 | 28.85688 | -13.65669 | 1783 ft | 132 kts | 28° |
| 2026-05-06 11:32 | 28.86507 | -13.65190 | 1614 ft | 130 kts | 28° |
| 2026-05-06 11:32 | 28.87312 | -13.64724 | 1436 ft | 129 kts | 29° |
| 2026-05-06 11:32 | 28.88121 | -13.64254 | 1266 ft | 129 kts | 30° |
| 2026-05-06 11:33 | 28.88917 | -13.63788 | 1088 ft | 131 kts | 28° |
| 2026-05-06 11:33 | 28.89733 | -13.63314 | 925 ft | 132 kts | 29° |
| 2026-05-06 11:33 | 28.90541 | -13.62847 | 746 ft | 126 kts | 30° |
| 2026-05-06 11:33 | 28.91316 | -13.62393 | 578 ft | 127 kts | 31° |
| 2026-05-06 11:34 | 28.92111 | -13.61936 | 404 ft | 128 kts | 33° |
| 2026-05-06 11:34 | 28.92907 | -13.61465 | 250 ft | 134 kts | 31° |
| 2026-05-06 11:34 | 28.93712 | -13.61001 | 56 ft | 122 kts | 30° |
| 2026-05-06 11:34 | 28.94313 | -13.60653 | 41 ft | 59 kts | 26° |
| 2026-05-06 11:35 | 28.94646 | -13.60591 | 45 ft | 46 kts | 358° |
| 2026-05-06 11:35 | 28.94930 | -13.60509 | 48 ft | 40 kts | 27° |
| 2026-05-06 11:35 | 28.95100 | -13.60442 | 48 ft | 5 kts | 323° |
| 2026-05-06 11:35 | 28.95128 | -13.60513 | 48 ft | 13 kts | 277° |
| 2026-05-06 11:36 | 28.95093 | -13.60568 | 51 ft | 13 kts | 231° |
| 2026-05-06 11:36 | 28.95109 | -13.60656 | 49 ft | 11 kts | 298° |
| 2026-05-06 11:36 | 28.95132 | -13.60708 | 45 ft | 2 kts | 296° |
| 2026-05-06 11:36 | 28.95133 | -13.60709 | 45 ft | 0 kts | 296° |